sensor_id;sensor_type;location;lat;lon;timestamp;temperature;humidity
5364;DHT22;2705;41.410;2.160;2022-08-19T00:02:11;22.40;99.90
5364;DHT22;2705;41.410;2.160;2022-08-19T00:04:42;22.50;99.90
5364;DHT22;2705;41.410;2.160;2022-08-19T00:07:14;22.50;99.90
5364;DHT22;2705;41.410;2.160;2022-08-19T00:09:43;22.50;99.90
5364;DHT22;2705;41.410;2.160;2022-08-19T00:12:12;22.60;99.90
5364;DHT22;2705;41.410;2.160;2022-08-19T00:14:42;22.50;99.90
5364;DHT22;2705;41.410;2.160;2022-08-19T00:17:11;22.40;99.90
5364;DHT22;2705;41.410;2.160;2022-08-19T00:19:42;22.40;99.90
5364;DHT22;2705;41.410;2.160;2022-08-19T00:22:11;22.40;99.90
5364;DHT22;2705;41.410;2.160;2022-08-19T00:24:40;22.40;99.90
5364;DHT22;2705;41.410;2.160;2022-08-19T00:27:17;22.40;99.90
5364;DHT22;2705;41.410;2.160;2022-08-19T00:29:53;22.40;99.90
5364;DHT22;2705;41.410;2.160;2022-08-19T00:32:22;22.40;99.90
5364;DHT22;2705;41.410;2.160;2022-08-19T00:34:54;22.30;99.90
5364;DHT22;2705;41.410;2.160;2022-08-19T00:37:24;22.30;99.90
5364;DHT22;2705;41.410;2.160;2022-08-19T00:39:54;22.40;99.90
5364;DHT22;2705;41.410;2.160;2022-08-19T00:42:23;22.30;99.90
5364;DHT22;2705;41.410;2.160;2022-08-19T00:44:55;22.40;99.90
5364;DHT22;2705;41.410;2.160;2022-08-19T00:47:25;22.30;99.90
5364;DHT22;2705;41.410;2.160;2022-08-19T00:49:57;22.40;99.90
5364;DHT22;2705;41.410;2.160;2022-08-19T00:52:31;22.40;99.90
5364;DHT22;2705;41.410;2.160;2022-08-19T00:55:05;22.30;99.90
5364;DHT22;2705;41.410;2.160;2022-08-19T00:57:39;22.30;99.90
5364;DHT22;2705;41.410;2.160;2022-08-19T01:00:12;22.40;99.90
5364;DHT22;2705;41.410;2.160;2022-08-19T01:02:42;22.50;99.90
5364;DHT22;2705;41.410;2.160;2022-08-19T01:05:15;22.40;99.90
5364;DHT22;2705;41.410;2.160;2022-08-19T01:07:46;22.50;99.90
5364;DHT22;2705;41.410;2.160;2022-08-19T01:10:17;22.50;99.90
5364;DHT22;2705;41.410;2.160;2022-08-19T01:12:48;22.50;99.90
5364;DHT22;2705;41.410;2.160;2022-08-19T01:15:21;22.40;99.90
5364;DHT22;2705;41.410;2.160;2022-08-19T01:17:51;22.40;99.90
5364;DHT22;2705;41.410;2.160;2022-08-19T01:20:23;22.40;99.90
5364;DHT22;2705;41.410;2.160;2022-08-19T01:22:56;22.40;99.90
5364;DHT22;2705;41.410;2.160;2022-08-19T01:25:31;22.50;99.90
5364;DHT22;2705;41.410;2.160;2022-08-19T01:28:01;22.40;99.90
5364;DHT22;2705;41.410;2.160;2022-08-19T01:30:37;22.30;99.90
5364;DHT22;2705;41.410;2.160;2022-08-19T01:33:10;22.20;99.90
5364;DHT22;2705;41.410;2.160;2022-08-19T01:35:41;21.90;99.90
5364;DHT22;2705;41.410;2.160;2022-08-19T01:38:20;21.70;99.90
5364;DHT22;2705;41.410;2.160;2022-08-19T01:40:56;21.60;99.90
5364;DHT22;2705;41.410;2.160;2022-08-19T01:43:27;21.50;99.90
5364;DHT22;2705;41.410;2.160;2022-08-19T01:45:56;21.60;99.90
5364;DHT22;2705;41.410;2.160;2022-08-19T01:48:25;21.70;99.90
5364;DHT22;2705;41.410;2.160;2022-08-19T01:50:56;21.80;99.90
5364;DHT22;2705;41.410;2.160;2022-08-19T01:53:27;21.70;99.90
5364;DHT22;2705;41.410;2.160;2022-08-19T01:56:00;21.80;99.90
5364;DHT22;2705;41.410;2.160;2022-08-19T01:58:35;21.70;99.90
5364;DHT22;2705;41.410;2.160;2022-08-19T02:01:06;21.70;99.90
5364;DHT22;2705;41.410;2.160;2022-08-19T02:03:35;21.70;99.90
5364;DHT22;2705;41.410;2.160;2022-08-19T02:06:04;21.70;99.90
5364;DHT22;2705;41.410;2.160;2022-08-19T02:08:37;21.80;99.90
5364;DHT22;2705;41.410;2.160;2022-08-19T02:11:07;21.80;99.90
5364;DHT22;2705;41.410;2.160;2022-08-19T02:13:36;21.70;99.90
5364;DHT22;2705;41.410;2.160;2022-08-19T02:16:05;21.80;99.90
5364;DHT22;2705;41.410;2.160;2022-08-19T02:18:34;21.60;99.90
5364;DHT22;2705;41.410;2.160;2022-08-19T02:21:03;21.60;99.90
5364;DHT22;2705;41.410;2.160;2022-08-19T02:23:34;21.60;99.90
5364;DHT22;2705;41.410;2.160;2022-08-19T02:26:03;21.60;99.90
5364;DHT22;2705;41.410;2.160;2022-08-19T02:28:32;21.80;99.90
5364;DHT22;2705;41.410;2.160;2022-08-19T02:31:01;21.80;99.90
5364;DHT22;2705;41.410;2.160;2022-08-19T02:33:30;21.90;99.90
5364;DHT22;2705;41.410;2.160;2022-08-19T02:35:59;21.90;99.90
5364;DHT22;2705;41.410;2.160;2022-08-19T02:38:31;21.90;99.90
5364;DHT22;2705;41.410;2.160;2022-08-19T02:41:05;21.90;99.90
5364;DHT22;2705;41.410;2.160;2022-08-19T02:43:34;21.80;99.90
5364;DHT22;2705;41.410;2.160;2022-08-19T02:46:12;21.70;99.90
5364;DHT22;2705;41.410;2.160;2022-08-19T02:48:42;21.60;99.90
5364;DHT22;2705;41.410;2.160;2022-08-19T02:51:16;21.80;99.90
5364;DHT22;2705;41.410;2.160;2022-08-19T02:53:46;21.80;99.90
5364;DHT22;2705;41.410;2.160;2022-08-19T02:56:16;21.80;99.90
5364;DHT22;2705;41.410;2.160;2022-08-19T02:58:45;21.80;99.90
5364;DHT22;2705;41.410;2.160;2022-08-19T03:01:21;21.80;99.90
5364;DHT22;2705;41.410;2.160;2022-08-19T03:03:57;21.90;99.90
5364;DHT22;2705;41.410;2.160;2022-08-19T03:06:27;21.90;99.90
5364;DHT22;2705;41.410;2.160;2022-08-19T03:08:56;21.90;99.90
5364;DHT22;2705;41.410;2.160;2022-08-19T03:11:29;21.90;99.90
5364;DHT22;2705;41.410;2.160;2022-08-19T03:14:00;22.00;99.90
5364;DHT22;2705;41.410;2.160;2022-08-19T03:16:31;21.90;99.90
5364;DHT22;2705;41.410;2.160;2022-08-19T03:19:01;21.80;99.90
5364;DHT22;2705;41.410;2.160;2022-08-19T03:21:32;21.80;99.90
5364;DHT22;2705;41.410;2.160;2022-08-19T03:24:04;21.80;99.90
5364;DHT22;2705;41.410;2.160;2022-08-19T03:26:38;21.70;99.90
5364;DHT22;2705;41.410;2.160;2022-08-19T03:29:08;21.60;99.90
5364;DHT22;2705;41.410;2.160;2022-08-19T03:31:42;21.60;99.90
5364;DHT22;2705;41.410;2.160;2022-08-19T03:34:22;21.60;99.90
5364;DHT22;2705;41.410;2.160;2022-08-19T03:36:54;21.70;99.90
5364;DHT22;2705;41.410;2.160;2022-08-19T03:39:24;21.60;99.90
5364;DHT22;2705;41.410;2.160;2022-08-19T03:41:55;21.60;99.90
5364;DHT22;2705;41.410;2.160;2022-08-19T03:44:49;21.50;99.90
5364;DHT22;2705;41.410;2.160;2022-08-19T03:47:18;21.60;99.90
5364;DHT22;2705;41.410;2.160;2022-08-19T03:49:48;21.50;99.90
5364;DHT22;2705;41.410;2.160;2022-08-19T03:52:16;21.50;99.90
5364;DHT22;2705;41.410;2.160;2022-08-19T03:54:45;21.50;99.90
5364;DHT22;2705;41.410;2.160;2022-08-19T03:57:19;21.50;99.90
5364;DHT22;2705;41.410;2.160;2022-08-19T03:59:58;21.50;99.90
5364;DHT22;2705;41.410;2.160;2022-08-19T04:02:40;21.50;99.90
5364;DHT22;2705;41.410;2.160;2022-08-19T04:05:27;21.40;99.90
5364;DHT22;2705;41.410;2.160;2022-08-19T04:07:56;21.50;99.90
5364;DHT22;2705;41.410;2.160;2022-08-19T04:10:27;21.50;99.90
5364;DHT22;2705;41.410;2.160;2022-08-19T04:12:58;21.50;99.90
5364;DHT22;2705;41.410;2.160;2022-08-19T04:15:27;21.50;99.90
5364;DHT22;2705;41.410;2.160;2022-08-19T04:18:01;21.40;99.90
5364;DHT22;2705;41.410;2.160;2022-08-19T04:20:29;21.40;99.90
5364;DHT22;2705;41.410;2.160;2022-08-19T04:22:58;21.30;99.90
5364;DHT22;2705;41.410;2.160;2022-08-19T04:25:27;21.40;99.90
5364;DHT22;2705;41.410;2.160;2022-08-19T04:27:58;21.50;99.90
5364;DHT22;2705;41.410;2.160;2022-08-19T04:30:27;21.60;99.90
5364;DHT22;2705;41.410;2.160;2022-08-19T04:32:56;21.70;99.90
5364;DHT22;2705;41.410;2.160;2022-08-19T04:35:25;21.50;99.90
5364;DHT22;2705;41.410;2.160;2022-08-19T04:37:54;21.40;99.90
5364;DHT22;2705;41.410;2.160;2022-08-19T04:40:23;21.60;99.90
5364;DHT22;2705;41.410;2.160;2022-08-19T04:43:11;21.50;99.90
5364;DHT22;2705;41.410;2.160;2022-08-19T04:45:43;21.60;99.90
5364;DHT22;2705;41.410;2.160;2022-08-19T04:48:12;21.70;99.90
5364;DHT22;2705;41.410;2.160;2022-08-19T04:50:55;21.60;99.90
5364;DHT22;2705;41.410;2.160;2022-08-19T04:53:26;21.60;99.90
5364;DHT22;2705;41.410;2.160;2022-08-19T04:56:08;21.70;99.90
5364;DHT22;2705;41.410;2.160;2022-08-19T04:58:41;21.70;99.90
5364;DHT22;2705;41.410;2.160;2022-08-19T05:01:12;21.60;99.90
5364;DHT22;2705;41.410;2.160;2022-08-19T05:03:41;21.60;99.90
5364;DHT22;2705;41.410;2.160;2022-08-19T05:06:13;21.70;99.90
5364;DHT22;2705;41.410;2.160;2022-08-19T05:08:43;21.70;99.90
5364;DHT22;2705;41.410;2.160;2022-08-19T05:11:14;21.70;99.90
5364;DHT22;2705;41.410;2.160;2022-08-19T05:13:45;21.60;99.90
5364;DHT22;2705;41.410;2.160;2022-08-19T05:16:16;21.50;99.90
5364;DHT22;2705;41.410;2.160;2022-08-19T05:18:45;21.30;99.90
5364;DHT22;2705;41.410;2.160;2022-08-19T05:21:33;21.40;99.90
5364;DHT22;2705;41.410;2.160;2022-08-19T05:24:23;21.70;99.90
5364;DHT22;2705;41.410;2.160;2022-08-19T05:26:53;21.70;99.90
5364;DHT22;2705;41.410;2.160;2022-08-19T05:29:26;21.70;99.90
5364;DHT22;2705;41.410;2.160;2022-08-19T05:32:04;21.80;99.90
5364;DHT22;2705;41.410;2.160;2022-08-19T05:34:38;21.80;99.90
5364;DHT22;2705;41.410;2.160;2022-08-19T05:37:07;21.80;99.90
5364;DHT22;2705;41.410;2.160;2022-08-19T05:39:45;21.90;99.90
5364;DHT22;2705;41.410;2.160;2022-08-19T05:42:17;21.70;99.90
5364;DHT22;2705;41.410;2.160;2022-08-19T05:44:49;21.50;99.90
5364;DHT22;2705;41.410;2.160;2022-08-19T05:47:19;21.40;99.90
5364;DHT22;2705;41.410;2.160;2022-08-19T05:49:48;21.60;99.90
5364;DHT22;2705;41.410;2.160;2022-08-19T05:52:19;21.60;99.90
5364;DHT22;2705;41.410;2.160;2022-08-19T05:54:53;21.40;99.90
5364;DHT22;2705;41.410;2.160;2022-08-19T05:57:23;21.40;99.90
5364;DHT22;2705;41.410;2.160;2022-08-19T05:59:55;21.40;99.90
5364;DHT22;2705;41.410;2.160;2022-08-19T06:02:25;21.50;99.90
5364;DHT22;2705;41.410;2.160;2022-08-19T06:04:54;21.80;99.90
5364;DHT22;2705;41.410;2.160;2022-08-19T06:07:23;21.90;99.90
5364;DHT22;2705;41.410;2.160;2022-08-19T06:09:53;22.00;99.90
5364;DHT22;2705;41.410;2.160;2022-08-19T06:12:27;22.00;99.90
5364;DHT22;2705;41.410;2.160;2022-08-19T06:15:02;21.90;99.90
5364;DHT22;2705;41.410;2.160;2022-08-19T06:17:32;22.00;99.90
5364;DHT22;2705;41.410;2.160;2022-08-19T06:20:03;22.00;99.90
5364;DHT22;2705;41.410;2.160;2022-08-19T06:22:37;22.00;99.90
5364;DHT22;2705;41.410;2.160;2022-08-19T06:25:07;22.00;99.90
5364;DHT22;2705;41.410;2.160;2022-08-19T06:27:37;22.00;99.90
5364;DHT22;2705;41.410;2.160;2022-08-19T06:30:27;22.00;99.90
5364;DHT22;2705;41.410;2.160;2022-08-19T06:32:57;22.00;99.90
5364;DHT22;2705;41.410;2.160;2022-08-19T06:35:31;22.00;99.90
5364;DHT22;2705;41.410;2.160;2022-08-19T06:37:59;22.20;99.90
5364;DHT22;2705;41.410;2.160;2022-08-19T06:40:29;22.20;99.90
5364;DHT22;2705;41.410;2.160;2022-08-19T06:42:58;22.10;99.90
5364;DHT22;2705;41.410;2.160;2022-08-19T06:45:38;22.30;99.90
5364;DHT22;2705;41.410;2.160;2022-08-19T06:48:07;22.40;99.90
5364;DHT22;2705;41.410;2.160;2022-08-19T06:50:37;22.50;99.90
5364;DHT22;2705;41.410;2.160;2022-08-19T06:53:07;22.60;99.90
5364;DHT22;2705;41.410;2.160;2022-08-19T06:55:37;22.60;99.90
5364;DHT22;2705;41.410;2.160;2022-08-19T06:58:08;22.50;99.90
5364;DHT22;2705;41.410;2.160;2022-08-19T07:00:39;22.50;99.90
5364;DHT22;2705;41.410;2.160;2022-08-19T07:03:09;22.60;99.90
5364;DHT22;2705;41.410;2.160;2022-08-19T07:05:41;22.70;99.90
5364;DHT22;2705;41.410;2.160;2022-08-19T07:08:12;22.70;99.90
5364;DHT22;2705;41.410;2.160;2022-08-19T07:10:43;22.90;99.90
5364;DHT22;2705;41.410;2.160;2022-08-19T07:13:13;23.00;99.90
5364;DHT22;2705;41.410;2.160;2022-08-19T07:15:43;23.00;99.90
5364;DHT22;2705;41.410;2.160;2022-08-19T07:18:14;23.10;99.90
5364;DHT22;2705;41.410;2.160;2022-08-19T07:20:43;23.20;99.90
5364;DHT22;2705;41.410;2.160;2022-08-19T07:23:13;23.20;99.90
5364;DHT22;2705;41.410;2.160;2022-08-19T07:25:44;23.10;99.90
5364;DHT22;2705;41.410;2.160;2022-08-19T07:28:19;23.20;99.90
5364;DHT22;2705;41.410;2.160;2022-08-19T07:30:53;23.20;99.90
5364;DHT22;2705;41.410;2.160;2022-08-19T07:33:21;23.20;99.90
5364;DHT22;2705;41.410;2.160;2022-08-19T07:35:54;23.20;99.90
5364;DHT22;2705;41.410;2.160;2022-08-19T07:38:23;23.30;99.90
5364;DHT22;2705;41.410;2.160;2022-08-19T07:40:53;23.20;99.90
5364;DHT22;2705;41.410;2.160;2022-08-19T07:43:22;23.20;99.90
5364;DHT22;2705;41.410;2.160;2022-08-19T07:46:03;23.10;99.90
5364;DHT22;2705;41.410;2.160;2022-08-19T07:48:32;23.20;99.90
5364;DHT22;2705;41.410;2.160;2022-08-19T07:51:04;23.20;99.90
5364;DHT22;2705;41.410;2.160;2022-08-19T07:53:36;23.20;99.90
5364;DHT22;2705;41.410;2.160;2022-08-19T07:56:07;23.20;99.90
5364;DHT22;2705;41.410;2.160;2022-08-19T07:58:39;23.30;99.90
5364;DHT22;2705;41.410;2.160;2022-08-19T08:01:12;23.50;99.90
5364;DHT22;2705;41.410;2.160;2022-08-19T08:03:42;23.60;99.90
5364;DHT22;2705;41.410;2.160;2022-08-19T08:06:28;23.80;99.90
5364;DHT22;2705;41.410;2.160;2022-08-19T08:09:16;23.90;99.90
5364;DHT22;2705;41.410;2.160;2022-08-19T08:11:56;23.90;99.90
5364;DHT22;2705;41.410;2.160;2022-08-19T08:14:34;24.00;99.90
5364;DHT22;2705;41.410;2.160;2022-08-19T08:17:06;24.10;99.90
5364;DHT22;2705;41.410;2.160;2022-08-19T08:19:38;24.10;99.90
5364;DHT22;2705;41.410;2.160;2022-08-19T08:22:09;24.20;99.90
5364;DHT22;2705;41.410;2.160;2022-08-19T08:25:02;24.10;99.90
5364;DHT22;2705;41.410;2.160;2022-08-19T08:27:35;24.20;99.90
5364;DHT22;2705;41.410;2.160;2022-08-19T08:30:08;24.40;99.90
5364;DHT22;2705;41.410;2.160;2022-08-19T08:32:39;24.50;99.90
5364;DHT22;2705;41.410;2.160;2022-08-19T08:35:12;24.40;99.90
5364;DHT22;2705;41.410;2.160;2022-08-19T08:37:41;24.50;99.90
5364;DHT22;2705;41.410;2.160;2022-08-19T08:40:18;24.50;99.90
5364;DHT22;2705;41.410;2.160;2022-08-19T08:42:53;24.60;99.90
5364;DHT22;2705;41.410;2.160;2022-08-19T08:45:25;24.70;99.90
5364;DHT22;2705;41.410;2.160;2022-08-19T08:48:18;24.80;99.90
5364;DHT22;2705;41.410;2.160;2022-08-19T08:50:51;25.00;99.90
5364;DHT22;2705;41.410;2.160;2022-08-19T08:53:22;25.20;99.90
5364;DHT22;2705;41.410;2.160;2022-08-19T08:55:56;25.30;99.90
5364;DHT22;2705;41.410;2.160;2022-08-19T08:58:29;25.40;99.90
5364;DHT22;2705;41.410;2.160;2022-08-19T09:01:10;25.40;99.90
5364;DHT22;2705;41.410;2.160;2022-08-19T09:03:43;25.40;99.90
5364;DHT22;2705;41.410;2.160;2022-08-19T09:06:20;25.60;99.90
5364;DHT22;2705;41.410;2.160;2022-08-19T09:09:03;25.70;99.90
5364;DHT22;2705;41.410;2.160;2022-08-19T09:11:52;25.70;99.90
5364;DHT22;2705;41.410;2.160;2022-08-19T09:14:34;25.80;99.90
5364;DHT22;2705;41.410;2.160;2022-08-19T09:17:21;25.80;99.90
5364;DHT22;2705;41.410;2.160;2022-08-19T09:19:59;25.90;99.90
5364;DHT22;2705;41.410;2.160;2022-08-19T09:22:32;26.00;99.90
5364;DHT22;2705;41.410;2.160;2022-08-19T09:25:01;25.90;99.90
5364;DHT22;2705;41.410;2.160;2022-08-19T09:27:31;26.10;99.90
5364;DHT22;2705;41.410;2.160;2022-08-19T09:30:22;26.40;99.90
5364;DHT22;2705;41.410;2.160;2022-08-19T09:32:52;26.50;99.90
5364;DHT22;2705;41.410;2.160;2022-08-19T09:35:27;26.70;99.90
5364;DHT22;2705;41.410;2.160;2022-08-19T09:37:59;26.90;99.90
5364;DHT22;2705;41.410;2.160;2022-08-19T09:40:30;27.00;99.90
5364;DHT22;2705;41.410;2.160;2022-08-19T09:43:05;27.20;99.90
5364;DHT22;2705;41.410;2.160;2022-08-19T09:45:39;27.20;99.90
5364;DHT22;2705;41.410;2.160;2022-08-19T09:48:08;26.80;99.90
5364;DHT22;2705;41.410;2.160;2022-08-19T09:50:39;26.90;99.90
5364;DHT22;2705;41.410;2.160;2022-08-19T09:53:18;27.20;99.90
5364;DHT22;2705;41.410;2.160;2022-08-19T09:55:52;27.40;99.90
5364;DHT22;2705;41.410;2.160;2022-08-19T09:58:23;27.20;99.90
5364;DHT22;2705;41.410;2.160;2022-08-19T10:00:56;27.50;99.90
5364;DHT22;2705;41.410;2.160;2022-08-19T10:03:27;27.70;99.90
5364;DHT22;2705;41.410;2.160;2022-08-19T10:06:00;27.80;99.90
5364;DHT22;2705;41.410;2.160;2022-08-19T10:08:31;27.70;99.90
5364;DHT22;2705;41.410;2.160;2022-08-19T10:11:02;27.80;99.90
5364;DHT22;2705;41.410;2.160;2022-08-19T10:13:52;27.90;99.90
5364;DHT22;2705;41.410;2.160;2022-08-19T10:16:22;27.90;99.90
5364;DHT22;2705;41.410;2.160;2022-08-19T10:18:56;28.00;99.90
5364;DHT22;2705;41.410;2.160;2022-08-19T10:21:30;28.20;99.90
5364;DHT22;2705;41.410;2.160;2022-08-19T10:24:02;28.40;99.90
5364;DHT22;2705;41.410;2.160;2022-08-19T10:26:36;28.40;99.90
5364;DHT22;2705;41.410;2.160;2022-08-19T10:29:09;28.60;99.90
5364;DHT22;2705;41.410;2.160;2022-08-19T10:31:39;28.50;99.90
5364;DHT22;2705;41.410;2.160;2022-08-19T10:34:40;28.60;99.90
5364;DHT22;2705;41.410;2.160;2022-08-19T10:37:17;28.70;99.40
5364;DHT22;2705;41.410;2.160;2022-08-19T10:39:50;28.70;99.00
5364;DHT22;2705;41.410;2.160;2022-08-19T10:42:19;28.90;99.50
5364;DHT22;2705;41.410;2.160;2022-08-19T10:44:49;28.50;99.90
5364;DHT22;2705;41.410;2.160;2022-08-19T10:47:18;28.60;99.90
5364;DHT22;2705;41.410;2.160;2022-08-19T10:49:53;28.60;99.90
5364;DHT22;2705;41.410;2.160;2022-08-19T10:52:42;29.00;99.90
5364;DHT22;2705;41.410;2.160;2022-08-19T10:55:18;29.00;99.90
5364;DHT22;2705;41.410;2.160;2022-08-19T10:58:21;29.10;99.90
5364;DHT22;2705;41.410;2.160;2022-08-19T11:00:55;29.10;99.70
5364;DHT22;2705;41.410;2.160;2022-08-19T11:03:25;29.30;99.90
5364;DHT22;2705;41.410;2.160;2022-08-19T11:05:59;29.50;99.30
5364;DHT22;2705;41.410;2.160;2022-08-19T11:08:30;29.80;99.40
5364;DHT22;2705;41.410;2.160;2022-08-19T11:11:01;29.60;98.70
5364;DHT22;2705;41.410;2.160;2022-08-19T11:13:34;29.40;98.20
5364;DHT22;2705;41.410;2.160;2022-08-19T11:16:06;29.30;98.20
5364;DHT22;2705;41.410;2.160;2022-08-19T11:18:38;29.50;98.00
5364;DHT22;2705;41.410;2.160;2022-08-19T11:21:09;29.50;97.20
5364;DHT22;2705;41.410;2.160;2022-08-19T11:23:40;29.70;97.20
5364;DHT22;2705;41.410;2.160;2022-08-19T11:26:11;29.70;96.90
5364;DHT22;2705;41.410;2.160;2022-08-19T11:28:40;29.70;96.70
5364;DHT22;2705;41.410;2.160;2022-08-19T11:31:10;29.80;97.80
5364;DHT22;2705;41.410;2.160;2022-08-19T11:33:40;29.80;99.10
5364;DHT22;2705;41.410;2.160;2022-08-19T11:36:14;29.90;99.10
5364;DHT22;2705;41.410;2.160;2022-08-19T11:38:47;30.10;99.60
5364;DHT22;2705;41.410;2.160;2022-08-19T11:41:18;29.90;99.90
5364;DHT22;2705;41.410;2.160;2022-08-19T11:43:47;29.90;99.90
5364;DHT22;2705;41.410;2.160;2022-08-19T11:46:17;29.90;99.90
5364;DHT22;2705;41.410;2.160;2022-08-19T11:48:46;29.80;99.90
5364;DHT22;2705;41.410;2.160;2022-08-19T11:51:18;29.50;99.90
5364;DHT22;2705;41.410;2.160;2022-08-19T11:53:49;29.10;99.90
5364;DHT22;2705;41.410;2.160;2022-08-19T11:56:19;29.20;99.90
5364;DHT22;2705;41.410;2.160;2022-08-19T11:58:49;29.30;99.90
5364;DHT22;2705;41.410;2.160;2022-08-19T12:01:21;29.30;99.90
5364;DHT22;2705;41.410;2.160;2022-08-19T12:03:52;29.30;99.90
5364;DHT22;2705;41.410;2.160;2022-08-19T12:06:23;29.10;99.90
5364;DHT22;2705;41.410;2.160;2022-08-19T12:08:58;29.10;99.90
5364;DHT22;2705;41.410;2.160;2022-08-19T12:11:28;28.90;99.90
5364;DHT22;2705;41.410;2.160;2022-08-19T12:14:01;29.10;99.90
5364;DHT22;2705;41.410;2.160;2022-08-19T12:16:30;29.20;99.90
5364;DHT22;2705;41.410;2.160;2022-08-19T12:19:00;29.60;99.90
5364;DHT22;2705;41.410;2.160;2022-08-19T12:21:33;29.50;99.90
5364;DHT22;2705;41.410;2.160;2022-08-19T12:24:05;29.30;99.90
5364;DHT22;2705;41.410;2.160;2022-08-19T12:26:35;29.30;99.90
5364;DHT22;2705;41.410;2.160;2022-08-19T12:29:20;29.30;99.90
5364;DHT22;2705;41.410;2.160;2022-08-19T12:31:51;29.20;99.90
5364;DHT22;2705;41.410;2.160;2022-08-19T12:34:20;29.30;99.90
5364;DHT22;2705;41.410;2.160;2022-08-19T12:36:49;29.40;99.90
5364;DHT22;2705;41.410;2.160;2022-08-19T12:39:20;29.50;99.90
5364;DHT22;2705;41.410;2.160;2022-08-19T12:41:49;29.40;99.90
5364;DHT22;2705;41.410;2.160;2022-08-19T12:44:22;29.00;99.90
5364;DHT22;2705;41.410;2.160;2022-08-19T12:46:58;29.30;99.90
5364;DHT22;2705;41.410;2.160;2022-08-19T12:49:30;29.10;99.90
5364;DHT22;2705;41.410;2.160;2022-08-19T12:52:22;28.60;99.90
5364;DHT22;2705;41.410;2.160;2022-08-19T12:54:53;28.80;99.90
5364;DHT22;2705;41.410;2.160;2022-08-19T12:57:24;29.00;99.90
5364;DHT22;2705;41.410;2.160;2022-08-19T13:00:04;28.90;99.90
5364;DHT22;2705;41.410;2.160;2022-08-19T13:02:35;29.10;99.90
5364;DHT22;2705;41.410;2.160;2022-08-19T13:05:08;29.00;99.90
5364;DHT22;2705;41.410;2.160;2022-08-19T13:07:39;29.00;99.90
5364;DHT22;2705;41.410;2.160;2022-08-19T13:10:12;29.20;99.90
5364;DHT22;2705;41.410;2.160;2022-08-19T13:12:44;29.00;99.90
5364;DHT22;2705;41.410;2.160;2022-08-19T13:15:33;29.10;99.90
5364;DHT22;2705;41.410;2.160;2022-08-19T13:18:03;29.20;99.90
5364;DHT22;2705;41.410;2.160;2022-08-19T13:20:32;29.00;99.90
5364;DHT22;2705;41.410;2.160;2022-08-19T13:23:03;29.10;99.90
5364;DHT22;2705;41.410;2.160;2022-08-19T13:25:34;29.30;99.90
5364;DHT22;2705;41.410;2.160;2022-08-19T13:28:04;29.00;99.90
5364;DHT22;2705;41.410;2.160;2022-08-19T13:30:33;29.30;99.90
5364;DHT22;2705;41.410;2.160;2022-08-19T13:33:20;29.20;99.90
5364;DHT22;2705;41.410;2.160;2022-08-19T13:36:01;29.20;99.90
5364;DHT22;2705;41.410;2.160;2022-08-19T13:38:35;29.30;99.90
5364;DHT22;2705;41.410;2.160;2022-08-19T13:41:06;29.30;99.90
5364;DHT22;2705;41.410;2.160;2022-08-19T13:43:41;29.10;99.90
5364;DHT22;2705;41.410;2.160;2022-08-19T13:46:10;29.10;99.90
5364;DHT22;2705;41.410;2.160;2022-08-19T13:48:42;29.20;99.90
5364;DHT22;2705;41.410;2.160;2022-08-19T13:51:11;29.30;99.90
5364;DHT22;2705;41.410;2.160;2022-08-19T13:53:43;29.20;99.90
5364;DHT22;2705;41.410;2.160;2022-08-19T13:56:17;29.40;99.90
5364;DHT22;2705;41.410;2.160;2022-08-19T13:58:52;29.20;99.90
5364;DHT22;2705;41.410;2.160;2022-08-19T14:01:25;29.30;99.90
5364;DHT22;2705;41.410;2.160;2022-08-19T14:03:54;29.80;99.90
5364;DHT22;2705;41.410;2.160;2022-08-19T14:06:24;30.40;99.90
5364;DHT22;2705;41.410;2.160;2022-08-19T14:08:52;30.80;99.90
5364;DHT22;2705;41.410;2.160;2022-08-19T14:11:23;30.80;99.90
5364;DHT22;2705;41.410;2.160;2022-08-19T14:13:52;31.00;99.90
5364;DHT22;2705;41.410;2.160;2022-08-19T14:16:33;31.30;99.90
5364;DHT22;2705;41.410;2.160;2022-08-19T14:19:02;31.80;99.90
5364;DHT22;2705;41.410;2.160;2022-08-19T14:21:31;31.60;99.90
5364;DHT22;2705;41.410;2.160;2022-08-19T14:24:07;31.60;99.90
5364;DHT22;2705;41.410;2.160;2022-08-19T14:26:38;31.20;99.90
5364;DHT22;2705;41.410;2.160;2022-08-19T14:29:07;31.20;99.90
5364;DHT22;2705;41.410;2.160;2022-08-19T14:31:36;31.60;99.90
5364;DHT22;2705;41.410;2.160;2022-08-19T14:34:09;31.10;99.90
5364;DHT22;2705;41.410;2.160;2022-08-19T14:36:40;30.60;99.90
5364;DHT22;2705;41.410;2.160;2022-08-19T14:39:09;30.90;99.90
5364;DHT22;2705;41.410;2.160;2022-08-19T14:41:41;31.30;99.90
5364;DHT22;2705;41.410;2.160;2022-08-19T14:44:11;31.90;99.90
5364;DHT22;2705;41.410;2.160;2022-08-19T14:46:40;31.90;99.90
5364;DHT22;2705;41.410;2.160;2022-08-19T14:49:16;31.50;99.90
5364;DHT22;2705;41.410;2.160;2022-08-19T14:51:45;31.90;99.90
5364;DHT22;2705;41.410;2.160;2022-08-19T14:54:15;32.00;99.90
5364;DHT22;2705;41.410;2.160;2022-08-19T14:56:45;32.20;99.90
5364;DHT22;2705;41.410;2.160;2022-08-19T14:59:15;32.60;99.90
5364;DHT22;2705;41.410;2.160;2022-08-19T15:01:44;31.60;99.90
5364;DHT22;2705;41.410;2.160;2022-08-19T15:04:13;32.00;99.90
5364;DHT22;2705;41.410;2.160;2022-08-19T15:06:43;32.00;99.90
5364;DHT22;2705;41.410;2.160;2022-08-19T15:09:12;32.40;99.90
5364;DHT22;2705;41.410;2.160;2022-08-19T15:11:47;32.20;99.90
5364;DHT22;2705;41.410;2.160;2022-08-19T15:14:18;31.50;99.90
5364;DHT22;2705;41.410;2.160;2022-08-19T15:16:48;30.90;99.90
5364;DHT22;2705;41.410;2.160;2022-08-19T15:19:17;30.60;99.90
5364;DHT22;2705;41.410;2.160;2022-08-19T15:21:46;30.20;99.90
5364;DHT22;2705;41.410;2.160;2022-08-19T15:24:16;29.70;99.90
5364;DHT22;2705;41.410;2.160;2022-08-19T15:26:47;29.30;99.90
5364;DHT22;2705;41.410;2.160;2022-08-19T15:29:17;29.20;99.90
5364;DHT22;2705;41.410;2.160;2022-08-19T15:31:47;29.20;99.90
5364;DHT22;2705;41.410;2.160;2022-08-19T15:34:21;29.30;99.90
5364;DHT22;2705;41.410;2.160;2022-08-19T15:36:50;29.10;99.90
5364;DHT22;2705;41.410;2.160;2022-08-19T15:39:20;29.20;99.90
5364;DHT22;2705;41.410;2.160;2022-08-19T15:41:49;29.10;99.90
5364;DHT22;2705;41.410;2.160;2022-08-19T15:44:19;29.10;99.90
5364;DHT22;2705;41.410;2.160;2022-08-19T15:46:49;29.10;99.90
5364;DHT22;2705;41.410;2.160;2022-08-19T15:49:19;29.10;99.90
5364;DHT22;2705;41.410;2.160;2022-08-19T15:51:49;29.00;99.90
5364;DHT22;2705;41.410;2.160;2022-08-19T15:54:20;28.80;99.90
5364;DHT22;2705;41.410;2.160;2022-08-19T15:56:50;28.70;99.90
5364;DHT22;2705;41.410;2.160;2022-08-19T15:59:39;28.60;99.90
5364;DHT22;2705;41.410;2.160;2022-08-19T16:02:31;28.70;99.90
5364;DHT22;2705;41.410;2.160;2022-08-19T16:05:22;28.70;99.90
5364;DHT22;2705;41.410;2.160;2022-08-19T16:08:05;28.70;99.90
5364;DHT22;2705;41.410;2.160;2022-08-19T16:10:35;28.70;99.90
5364;DHT22;2705;41.410;2.160;2022-08-19T16:13:05;28.60;99.90
5364;DHT22;2705;41.410;2.160;2022-08-19T16:15:36;28.40;99.90
5364;DHT22;2705;41.410;2.160;2022-08-19T16:18:07;28.40;99.90
5364;DHT22;2705;41.410;2.160;2022-08-19T16:20:37;28.40;99.90
5364;DHT22;2705;41.410;2.160;2022-08-19T16:23:06;28.40;99.90
5364;DHT22;2705;41.410;2.160;2022-08-19T16:25:35;28.40;99.90
5364;DHT22;2705;41.410;2.160;2022-08-19T16:28:05;28.40;99.90
5364;DHT22;2705;41.410;2.160;2022-08-19T16:30:39;28.30;99.90
5364;DHT22;2705;41.410;2.160;2022-08-19T16:33:17;28.20;99.90
5364;DHT22;2705;41.410;2.160;2022-08-19T16:35:49;28.20;99.90
5364;DHT22;2705;41.410;2.160;2022-08-19T16:38:28;28.00;99.90